ウィニペグ の空港の天気 - METARとTAF

ウィニペグ国際空港 ( CYWG / YWG ) - カナダ マニトバ州ウィニペグ
飛行場実況気象(Metar)
観測時間07/28 21:00 CDT (07/29 02:00 UTC)
風向・風速北東 5m/s
視程10km以上
天気現象
全天の8割程度の雲 雲底高度 2590m
気温24℃
湿度41%
気圧1016.8hPa
METARCYWG 290200Z 04009KT 12SM BKN085 24/10 A3002 RMK AC6 FU SLP168 DENSITY ALT 1900FT
過去の天気等 Google飛行場航空写真 Wunderground天気予報

過去48時間のMETAR

飛行場予報(TAF)
発表時間: 7/28 18:48 CDT (7/28 23:48 UTC)
予報対象時間: 28日19時 CDT ~ 29日19時 CDT
風向・風速北 8m/s 瞬間風速 13m/s
視程10km以上
少しの雲 雲底高度 7620m
28日21時 CDT ~ 28日23時 CDT に徐々に
風向・風速北北西 5m/s
28日23時 CDT から
風向・風速北 4m/s
視程10km以上
なし
TAF CYWG 282348Z 2900/2924 36015G25KT P6SM FEW250
BECMG 2902/2904 34010KT
FM290400 36008KT P6SM SKC RMK NXT FCST BY 290600Z